createdAt,value
2022-12-28T00:01:22.878Z,101103.78
2022-12-28T00:03:50.230Z,101104.53
2022-12-28T00:06:17.689Z,101097.34
2022-12-28T00:08:44.401Z,101096.16
2022-12-28T00:11:26.547Z,101085.19
2022-12-28T00:13:59.022Z,101077.56
2022-12-28T00:16:28.484Z,101071.38
2022-12-28T00:18:56.164Z,101071.16
2022-12-28T00:21:23.329Z,101066.09
2022-12-28T00:23:54.112Z,101066.44
2022-12-28T00:26:26.193Z,101060.25
2022-12-28T00:28:56.911Z,101047.81
2022-12-28T00:31:28.429Z,101043.81
2022-12-28T00:33:54.931Z,101045.09
2022-12-28T00:36:21.458Z,101038.41
2022-12-28T00:38:47.871Z,101028.38
2022-12-28T00:41:14.322Z,101034.75
2022-12-28T00:43:40.758Z,101030.28
2022-12-28T00:46:07.316Z,101034.19
2022-12-28T00:48:33.861Z,101024.50
2022-12-28T00:51:15.176Z,101022.53
2022-12-28T00:53:42.353Z,101023.53
2022-12-28T00:56:11.847Z,101012.84
2022-12-28T00:58:38.633Z,101000.53
2022-12-28T01:01:06.713Z,101000.41
2022-12-28T01:03:33.221Z,100989.00
2022-12-28T01:05:59.636Z,100990.63
2022-12-28T01:08:26.048Z,100981.31
2022-12-28T01:10:52.505Z,100983.84
2022-12-28T01:13:18.976Z,100972.91
2022-12-28T01:15:45.414Z,100962.06
2022-12-28T01:18:12.748Z,100964.72
2022-12-28T01:20:40.643Z,100970.06
2022-12-28T01:23:07.270Z,100962.25
2022-12-28T01:25:34.357Z,100966.31
2022-12-28T01:28:00.969Z,100960.56
2022-12-28T01:30:27.497Z,100953.69
2022-12-28T01:32:53.945Z,100940.72
2022-12-28T01:35:20.382Z,100925.69
2022-12-28T01:37:46.803Z,100926.16
2022-12-28T01:40:15.724Z,100923.38
2022-12-28T01:42:42.163Z,100915.56
2022-12-28T01:45:20.057Z,100910.59
2022-12-28T01:47:49.332Z,100914.78
2022-12-28T01:50:21.176Z,100907.25
2022-12-28T01:52:59.349Z,100907.84
2022-12-28T01:55:30.085Z,100906.97
2022-12-28T01:58:03.329Z,100906.47
2022-12-28T02:00:29.846Z,100911.97
2022-12-28T02:03:05.260Z,100898.19
2022-12-28T02:05:38.351Z,100896.88
2022-12-28T02:08:10.831Z,100886.59
2022-12-28T02:10:43.930Z,100877.88
2022-12-28T02:13:17.026Z,100874.94
2022-12-28T02:15:44.193Z,100878.31
2022-12-28T02:18:12.116Z,100876.06
2022-12-28T02:21:17.171Z,100869.47
2022-12-28T02:24:07.876Z,100863.66
2022-12-28T02:26:47.302Z,100850.50
2022-12-28T02:29:43.448Z,100848.69
2022-12-28T02:32:39.497Z,100840.78
2022-12-28T02:35:24.040Z,100836.06
2022-12-28T02:38:09.311Z,100827.03
2022-12-28T02:40:42.413Z,100827.72
2022-12-28T02:43:08.960Z,100825.66
2022-12-28T02:46:02.587Z,100810.22
2022-12-28T02:49:00.979Z,100804.44
2022-12-28T02:52:06.844Z,100788.84
2022-12-28T02:55:24.049Z,100787.41
2022-12-28T02:57:56.207Z,100786.19
2022-12-28T03:00:25.847Z,100783.59
2022-12-28T03:02:58.169Z,100796.28
2022-12-28T03:06:04.073Z,100779.19
2022-12-28T03:08:50.835Z,100777.97
2022-12-28T03:11:22.574Z,100766.56
2022-12-28T03:13:56.843Z,100770.25
2022-12-28T03:16:57.833Z,100759.81
2022-12-28T03:19:50.275Z,100755.09
2022-12-28T03:22:37.979Z,100745.13
2022-12-28T03:25:35.359Z,100747.44
2022-12-28T03:28:24.149Z,100742.91
2022-12-28T03:31:06.466Z,100750.41
2022-12-28T03:33:42.101Z,100747.00
2022-12-28T03:36:20.299Z,100741.38
2022-12-28T03:39:11.563Z,100733.22
2022-12-28T03:41:42.851Z,100732.13
2022-12-28T03:44:16.142Z,100718.59
2022-12-28T03:47:11.181Z,100721.72
2022-12-28T03:49:38.393Z,100715.44
2022-12-28T03:52:06.498Z,100698.81
2022-12-28T03:54:33.010Z,100690.13
2022-12-28T03:56:59.592Z,100691.56
2022-12-28T03:59:25.990Z,100685.94
2022-12-28T04:01:52.523Z,100671.09
2022-12-28T04:04:19.004Z,100671.22
2022-12-28T04:06:45.462Z,100666.16
2022-12-28T04:09:11.841Z,100668.41
2022-12-28T04:11:38.306Z,100673.75
2022-12-28T04:14:10.387Z,100659.84
2022-12-28T04:16:37.587Z,100662.00
2022-12-28T04:19:04.163Z,100658.25
2022-12-28T04:21:30.550Z,100653.97
2022-12-28T04:23:56.953Z,100645.06
2022-12-28T04:26:23.392Z,100639.28
2022-12-28T04:28:49.841Z,100635.19
2022-12-28T04:31:16.274Z,100634.31
2022-12-28T04:33:42.746Z,100632.41
2022-12-28T04:36:12.805Z,100621.69
2022-12-28T04:38:40.170Z,100606.66
2022-12-28T04:41:08.466Z,100603.53
2022-12-28T04:43:35.223Z,100596.38
2022-12-28T04:46:04.536Z,100599.31
2022-12-28T04:48:31.597Z,100593.13
2022-12-28T04:50:58.337Z,100579.44
2022-12-28T04:53:24.853Z,100577.91
2022-12-28T04:55:51.258Z,100571.31
2022-12-28T04:58:17.722Z,100545.91
2022-12-28T05:00:44.381Z,100552.28
2022-12-28T05:03:11.221Z,100544.63
2022-12-28T05:05:37.793Z,100549.75
2022-12-28T05:08:04.409Z,100551.72
2022-12-28T05:10:30.906Z,100541.09
2022-12-28T05:12:57.309Z,100532.66
2022-12-28T05:15:23.756Z,100530.91
2022-12-28T05:17:50.432Z,100527.84
2022-12-28T05:20:18.050Z,100531.13
2022-12-28T05:22:44.560Z,100521.91
2022-12-28T05:25:11.006Z,100519.72
2022-12-28T05:27:37.432Z,100518.00
2022-12-28T05:30:04.236Z,100511.44
2022-12-28T05:32:30.609Z,100498.91
2022-12-28T05:34:57.044Z,100488.72
2022-12-28T05:37:23.459Z,100482.25
2022-12-28T05:39:49.919Z,100481.53
2022-12-28T05:42:16.341Z,100482.38
2022-12-28T05:44:42.735Z,100472.81
2022-12-28T05:47:09.240Z,100465.78
2022-12-28T05:49:35.672Z,100464.59
2022-12-28T05:52:02.131Z,100468.31
2022-12-28T05:54:28.528Z,100473.03
2022-12-28T05:56:54.922Z,100466.38
2022-12-28T05:59:21.455Z,100451.19
2022-12-28T06:01:48.023Z,100449.72
2022-12-28T06:04:19.654Z,100450.34
2022-12-28T06:06:47.236Z,100447.25
2022-12-28T06:09:14.109Z,100435.44
2022-12-28T06:11:40.534Z,100440.81
2022-12-28T06:14:07.356Z,100437.56
2022-12-28T06:16:40.660Z,100441.78
2022-12-28T06:19:10.276Z,100431.50
2022-12-28T06:21:39.166Z,100434.31
2022-12-28T06:24:07.199Z,100433.28
2022-12-28T06:26:36.049Z,100436.31
2022-12-28T06:29:02.592Z,100431.59
2022-12-28T06:31:34.650Z,100420.81
2022-12-28T06:34:02.712Z,100426.94
2022-12-28T06:36:32.225Z,100415.63
2022-12-28T06:38:59.978Z,100432.00
2022-12-28T06:41:27.187Z,100418.72
2022-12-28T06:43:54.879Z,100412.19
2022-12-28T06:46:24.022Z,100416.25
2022-12-28T06:48:51.064Z,100412.28
2022-12-28T06:51:23.323Z,100406.09
2022-12-28T06:53:51.624Z,100406.44
2022-12-28T06:56:21.014Z,100413.69
2022-12-28T06:58:49.295Z,100410.19
2022-12-28T07:01:31.988Z,100409.88
2022-12-28T07:04:00.129Z,100399.03
2022-12-28T07:06:28.645Z,100408.22
2022-12-28T07:09:04.377Z,100403.28
2022-12-28T07:11:30.952Z,100390.69
2022-12-28T07:13:57.834Z,100392.88
2022-12-28T07:16:25.986Z,100387.38
2022-12-28T07:18:52.693Z,100372.16
2022-12-28T07:21:22.532Z,100380.91
2022-12-28T07:23:51.457Z,100383.84
2022-12-28T07:26:22.945Z,100376.88
2022-12-28T07:28:51.953Z,100381.81
2022-12-28T07:31:35.737Z,100376.09
2022-12-28T07:34:04.794Z,100370.81
2022-12-28T07:36:32.631Z,100373.31
2022-12-28T07:39:00.296Z,100377.81
2022-12-28T07:41:29.792Z,100365.38
2022-12-28T07:43:56.598Z,100369.66
2022-12-28T07:46:28.468Z,100364.47
2022-12-28T07:48:56.897Z,100381.03
2022-12-28T07:51:27.119Z,100371.91
2022-12-28T07:53:54.916Z,100355.47
2022-12-28T07:56:22.727Z,100357.50
2022-12-28T08:01:18.193Z,100357.22
2022-12-28T08:03:45.538Z,100368.53
2022-12-28T08:06:13.514Z,100365.31
2022-12-28T08:08:42.679Z,100365.16
2022-12-28T08:11:12.144Z,100357.22
2022-12-28T08:13:42.043Z,100363.09
2022-12-28T08:16:11.674Z,100365.97
2022-12-28T08:18:38.471Z,100350.56
2022-12-28T08:21:07.631Z,100368.00
2022-12-28T08:23:34.077Z,100373.25
2022-12-28T08:26:15.080Z,100352.63
2022-12-28T08:28:43.315Z,100360.28
2022-12-28T08:31:15.632Z,100361.66
2022-12-28T08:33:42.302Z,100357.75
2022-12-28T08:36:09.693Z,100359.00
2022-12-28T08:38:37.922Z,100351.75
2022-12-28T08:41:06.941Z,100339.34
2022-12-28T08:43:34.516Z,100333.97
2022-12-28T08:46:05.555Z,100348.50
2022-12-28T08:48:33.558Z,100341.47
2022-12-28T08:51:08.721Z,100346.50
2022-12-28T08:53:36.363Z,100352.66
2022-12-28T08:56:10.833Z,100339.91
2022-12-28T08:58:39.097Z,100345.06
2022-12-28T09:01:12.834Z,100346.03
2022-12-28T09:03:42.204Z,100336.91
2022-12-28T09:06:12.038Z,100346.41
2022-12-28T09:08:39.309Z,100356.84
2022-12-28T09:11:08.611Z,100353.28
2022-12-28T09:13:35.680Z,100356.09
2022-12-28T09:16:05.007Z,100362.22
2022-12-28T09:18:31.883Z,100365.81
2022-12-28T09:21:04.964Z,100365.44
2022-12-28T09:23:31.385Z,100360.72
2022-12-28T09:26:04.192Z,100359.59
2022-12-28T09:28:30.651Z,100358.78
2022-12-28T09:30:57.130Z,100350.81
2022-12-28T09:34:15.351Z,100347.16
2022-12-28T09:36:38.070Z,100336.72
2022-12-28T09:39:07.326Z,100348.31
2022-12-28T09:41:51.101Z,100344.09
2022-12-28T09:44:32.197Z,100350.09
2022-12-28T09:47:17.467Z,100351.28
2022-12-28T09:50:01.768Z,100353.25
2022-12-28T09:52:36.663Z,100347.13
2022-12-28T09:55:12.369Z,100351.47
2022-12-28T09:57:43.138Z,100351.41
2022-12-28T10:00:18.153Z,100351.53
2022-12-28T10:02:49.802Z,100357.44
2022-12-28T10:05:16.647Z,100358.94
2022-12-28T10:07:43.291Z,100361.72
2022-12-28T10:10:16.172Z,100362.66
2022-12-28T10:12:43.686Z,100354.19
2022-12-28T10:15:14.791Z,100351.53
2022-12-28T10:17:42.373Z,100353.59
2022-12-28T10:20:20.304Z,100342.50
2022-12-28T10:22:51.966Z,100338.97
2022-12-28T10:25:21.982Z,100349.69
2022-12-28T10:27:49.617Z,100336.56
2022-12-28T10:30:29.656Z,100343.81
2022-12-28T10:33:02.940Z,100346.00
2022-12-28T10:35:48.287Z,100347.53
2022-12-28T10:38:23.148Z,100337.69
2022-12-28T10:41:17.087Z,100346.44
2022-12-28T10:44:21.343Z,100349.69
2022-12-28T10:46:51.323Z,100341.09
2022-12-28T10:49:17.926Z,100340.81
2022-12-28T10:51:59.797Z,100338.88
2022-12-28T10:54:27.614Z,100348.00
2022-12-28T10:56:54.815Z,100342.00
2022-12-28T10:59:24.365Z,100336.06
2022-12-28T11:01:50.947Z,100338.47
2022-12-28T11:04:21.690Z,100329.19
2022-12-28T11:06:52.566Z,100335.50
2022-12-28T11:09:21.827Z,100330.41
2022-12-28T11:11:50.374Z,100321.56
2022-12-28T11:14:35.293Z,100317.75
2022-12-28T11:17:20.061Z,100317.47
2022-12-28T11:19:48.937Z,100310.22
2022-12-28T11:22:24.172Z,100304.81
2022-12-28T11:24:50.940Z,100299.78
2022-12-28T11:27:23.358Z,100296.94
2022-12-28T11:29:53.154Z,100288.78
2022-12-28T11:32:38.541Z,100291.44
2022-12-28T11:35:06.358Z,100280.22
2022-12-28T11:37:32.810Z,100279.78
2022-12-28T11:39:59.308Z,100286.91
2022-12-28T11:42:41.805Z,100275.09
2022-12-28T11:45:46.985Z,100276.22
2022-12-28T11:48:38.336Z,100273.16
2022-12-28T11:51:05.737Z,100268.19
2022-12-28T11:53:32.117Z,100273.22
2022-12-28T11:56:01.469Z,100268.84
2022-12-28T11:58:30.866Z,100261.16
2022-12-28T12:01:00.083Z,100257.75
2022-12-28T12:03:58.979Z,100252.28
2022-12-28T12:06:44.077Z,100254.94
2022-12-28T12:09:25.714Z,100250.00
2022-12-28T12:12:06.088Z,100260.03
2022-12-28T12:14:41.982Z,100258.81
2022-12-28T12:17:14.435Z,100247.16
2022-12-28T12:19:48.251Z,100248.56
2022-12-28T12:22:21.169Z,100256.81
2022-12-28T12:24:54.932Z,100253.47
2022-12-28T12:27:39.456Z,100257.41
2022-12-28T12:30:15.608Z,100248.22
2022-12-28T12:32:56.637Z,100245.06
2022-12-28T12:35:28.709Z,100243.97
2022-12-28T12:38:13.273Z,100242.16
2022-12-28T12:40:42.533Z,100245.25
2022-12-28T12:43:27.175Z,100243.09
2022-12-28T12:46:09.010Z,100243.66
2022-12-28T12:48:57.432Z,100237.25
2022-12-28T12:52:01.539Z,100239.47
2022-12-28T12:54:52.987Z,100237.94
2022-12-28T12:57:47.639Z,100235.91
2022-12-28T13:00:17.063Z,100237.06
2022-12-28T13:03:09.612Z,100233.38
2022-12-28T13:05:41.539Z,100234.22
2022-12-28T13:08:21.670Z,100227.09
2022-12-28T13:10:48.537Z,100221.41
2022-12-28T13:13:32.660Z,100214.22
2022-12-28T13:16:04.790Z,100226.63
2022-12-28T13:18:44.530Z,100215.13
2022-12-28T13:21:20.331Z,100206.59
2022-12-28T13:23:47.333Z,100201.72
2022-12-28T13:26:15.706Z,100203.53
2022-12-28T13:28:55.799Z,100197.59
2022-12-28T13:31:25.320Z,100195.31
2022-12-28T13:34:35.991Z,100191.47
2022-12-28T13:37:13.825Z,100191.63
2022-12-28T13:39:42.440Z,100189.91
2022-12-28T13:42:17.371Z,100196.97
2022-12-28T13:45:01.679Z,100183.00
2022-12-28T13:47:38.394Z,100192.25
2022-12-28T13:50:10.805Z,100185.41
2022-12-28T13:52:45.518Z,100185.25
2022-12-28T13:55:18.517Z,100187.25
2022-12-28T13:57:54.178Z,100183.97
2022-12-28T14:00:24.218Z,100186.81
2022-12-28T14:02:55.481Z,100186.41
2022-12-28T14:05:25.839Z,100180.81
2022-12-28T14:07:54.652Z,100179.00
2022-12-28T14:10:21.998Z,100182.94
2022-12-28T14:12:49.753Z,100178.00
2022-12-28T14:15:17.148Z,100177.38
2022-12-28T14:17:46.531Z,100178.63
2022-12-28T14:20:13.272Z,100170.63
2022-12-28T14:22:40.960Z,100173.94
2022-12-28T14:25:14.072Z,100171.63
2022-12-28T14:27:44.695Z,100169.63
2022-12-28T14:30:23.569Z,100170.13
2022-12-28T14:32:50.434Z,100161.06
2022-12-28T14:35:21.158Z,100172.13
2022-12-28T14:37:52.988Z,100172.03
2022-12-28T14:40:32.454Z,100168.03
2022-12-28T14:43:17.696Z,100164.75
2022-12-28T14:46:07.692Z,100161.09
2022-12-28T14:48:40.155Z,100156.50
2022-12-28T14:51:26.992Z,100158.47
2022-12-28T14:54:11.729Z,100154.69
2022-12-28T14:56:38.929Z,100161.66
2022-12-28T14:59:13.662Z,100164.59
2022-12-28T15:01:41.820Z,100167.63
2022-12-28T15:04:24.741Z,100160.53
2022-12-28T15:06:51.173Z,100161.25
2022-12-28T15:09:17.715Z,100164.56
2022-12-28T15:11:45.981Z,100174.00
2022-12-28T15:14:12.806Z,100162.63
2022-12-28T15:16:39.315Z,100168.38
2022-12-28T15:19:05.843Z,100165.81
2022-12-28T15:21:33.381Z,100161.50
2022-12-28T15:23:59.817Z,100171.09
2022-12-28T15:26:29.148Z,100162.53
2022-12-28T15:28:55.583Z,100165.63
2022-12-28T15:31:22.231Z,100161.00
2022-12-28T15:33:49.031Z,100149.28
2022-12-28T15:36:18.567Z,100153.75
2022-12-28T15:38:48.999Z,100150.22
2022-12-28T15:41:35.117Z,100149.81
2022-12-28T15:44:01.956Z,100145.59
2022-12-28T15:46:28.542Z,100142.94
2022-12-28T15:48:55.076Z,100146.19
2022-12-28T15:51:21.501Z,100136.00
2022-12-28T15:53:47.922Z,100143.28
2022-12-28T15:56:27.743Z,100145.78
2022-12-28T15:58:56.546Z,100145.19
2022-12-28T16:01:24.826Z,100150.91
2022-12-28T16:03:52.943Z,100150.28
2022-12-28T16:06:20.909Z,100147.81
2022-12-28T16:08:48.220Z,100136.97
2022-12-28T16:11:17.450Z,100138.69
2022-12-28T16:13:49.766Z,100130.97
2022-12-28T16:16:16.220Z,100124.66
2022-12-28T16:18:42.700Z,100139.47
2022-12-28T16:21:10.887Z,100134.38
2022-12-28T16:23:39.768Z,100146.44
2022-12-28T16:26:07.430Z,100128.47
2022-12-28T16:28:34.385Z,100138.63
2022-12-28T16:31:01.385Z,100136.22
2022-12-28T16:33:28.022Z,100128.06
2022-12-28T16:35:59.289Z,100130.84
2022-12-28T16:38:28.803Z,100119.59
2022-12-28T16:40:56.487Z,100117.16
2022-12-28T16:43:23.350Z,100103.47
2022-12-28T16:45:49.836Z,100090.47
2022-12-28T16:48:16.893Z,100079.16
2022-12-28T16:50:43.319Z,100079.56
2022-12-28T16:53:09.818Z,100079.03
2022-12-28T16:55:42.146Z,100096.22
2022-12-28T16:58:09.869Z,100094.78
2022-12-28T17:00:36.653Z,100089.19
2022-12-28T17:03:03.357Z,100080.72
2022-12-28T17:05:34.642Z,100072.34
2022-12-28T17:08:02.244Z,100070.94
2022-12-28T17:10:29.490Z,100069.84
2022-12-28T17:12:56.051Z,100062.97
2022-12-28T17:15:23.437Z,100069.00
2022-12-28T17:17:50.202Z,100060.34
2022-12-28T17:20:16.855Z,100051.50
2022-12-28T17:22:43.340Z,100049.47
2022-12-28T17:25:09.748Z,100037.88
2022-12-28T17:27:36.236Z,100035.28
2022-12-28T17:30:02.661Z,100044.75
2022-12-28T17:32:29.125Z,100037.00
2022-12-28T17:34:55.633Z,100034.59
2022-12-28T17:37:22.110Z,100027.63
2022-12-28T17:39:48.532Z,100014.50
2022-12-28T17:42:14.936Z,100008.28
2022-12-28T17:44:41.368Z,100018.53
2022-12-28T17:47:08.384Z,100015.81
2022-12-28T17:49:34.834Z,100024.06
2022-12-28T17:52:01.273Z,100016.72
2022-12-28T17:54:27.795Z,100007.09
2022-12-28T17:56:54.189Z,100007.81
2022-12-28T17:59:20.659Z,100006.63
2022-12-28T18:01:47.145Z,99988.03
2022-12-28T18:04:14.307Z,99988.81
2022-12-28T18:06:40.853Z,99982.81
2022-12-28T18:09:07.265Z,99987.00
2022-12-28T18:11:33.788Z,99997.97
2022-12-28T18:14:00.220Z,99986.75
2022-12-28T18:16:27.761Z,99981.53
2022-12-28T18:18:54.367Z,99971.03
2022-12-28T18:21:23.013Z,99976.91
2022-12-28T18:23:51.940Z,99959.38
2022-12-28T18:26:26.225Z,99966.25
2022-12-28T18:28:54.438Z,99974.00
2022-12-28T18:31:21.351Z,99966.16
2022-12-28T18:33:48.359Z,99955.63
2022-12-28T18:36:17.722Z,99952.56
2022-12-28T18:38:47.387Z,99956.28
2022-12-28T18:41:16.314Z,99952.34
2022-12-28T18:43:43.046Z,99951.19
2022-12-28T18:46:09.717Z,99947.91
2022-12-28T18:48:39.032Z,99947.91
2022-12-28T18:51:08.315Z,99943.13
2022-12-28T18:53:35.578Z,99933.47
2022-12-28T18:56:01.911Z,99934.84
2022-12-28T18:58:30.599Z,99927.00
2022-12-28T19:01:13.070Z,99932.09
2022-12-28T19:04:00.604Z,99923.50
2022-12-28T19:06:27.436Z,99925.84
2022-12-28T19:08:59.745Z,99905.38
2022-12-28T19:11:26.420Z,99913.31
2022-12-28T19:13:52.844Z,99896.88
2022-12-28T19:16:24.593Z,99895.75
2022-12-28T19:18:57.041Z,99888.91
2022-12-28T19:21:34.835Z,99884.50
2022-12-28T19:24:10.035Z,99879.91
2022-12-28T19:26:36.465Z,99877.28
2022-12-28T19:29:03.923Z,99879.41
2022-12-28T19:31:31.119Z,99876.31
2022-12-28T19:33:57.890Z,99871.09
2022-12-28T19:36:25.167Z,99878.53
2022-12-28T19:38:55.544Z,99869.63
2022-12-28T19:41:22.809Z,99871.50
2022-12-28T19:43:49.361Z,99868.47
2022-12-28T19:46:18.137Z,99865.38
2022-12-28T19:48:45.397Z,99870.28
2022-12-28T19:51:12.354Z,99857.66
2022-12-28T19:53:38.792Z,99857.38
2022-12-28T19:56:06.523Z,99858.38
2022-12-28T19:58:34.801Z,99868.50
2022-12-28T20:01:13.539Z,99845.41
2022-12-28T20:03:40.761Z,99850.00
2022-12-28T20:06:13.263Z,99840.88
2022-12-28T20:08:40.316Z,99843.84
2022-12-28T20:11:06.788Z,99828.28
2022-12-28T20:13:34.325Z,99838.81
2022-12-28T20:16:00.813Z,99833.59
2022-12-28T20:18:27.309Z,99831.38
2022-12-28T20:23:46.013Z,99829.94
2022-12-28T20:26:12.580Z,99819.63
2022-12-28T20:28:39.016Z,99810.66
2022-12-28T20:31:07.679Z,99807.09
2022-12-28T20:33:37.092Z,99793.22
2022-12-28T20:36:06.975Z,99783.75
2022-12-28T20:38:34.472Z,99784.19
2022-12-28T20:41:39.427Z,99784.03
2022-12-28T20:44:11.779Z,99779.28
2022-12-28T20:46:38.298Z,99765.78
2022-12-28T20:49:06.104Z,99762.19
2022-12-28T20:51:33.579Z,99760.69
2022-12-28T20:54:00.140Z,99758.81
2022-12-28T20:56:27.058Z,99760.50
2022-12-28T20:58:53.818Z,99748.06
2022-12-28T21:01:21.228Z,99748.59
2022-12-28T21:03:47.941Z,99743.06
2022-12-28T21:06:15.087Z,99733.50
2022-12-28T21:08:41.569Z,99731.59
2022-12-28T21:11:08.147Z,99719.38
2022-12-28T21:13:37.996Z,99721.13
2022-12-28T21:16:07.688Z,99722.94
2022-12-28T21:18:35.580Z,99716.56
2022-12-28T21:21:02.758Z,99716.81
2022-12-28T21:23:30.796Z,99698.91
2022-12-28T21:26:04.712Z,99712.78
2022-12-28T21:28:31.436Z,99698.81
2022-12-28T21:30:58.275Z,99702.75
2022-12-28T21:33:24.788Z,99683.06
2022-12-28T21:36:19.166Z,99684.22
2022-12-28T21:38:47.623Z,99675.69
2022-12-28T21:41:16.984Z,99681.09
2022-12-28T21:43:43.459Z,99676.03
2022-12-28T21:46:14.573Z,99666.81
2022-12-28T21:48:42.250Z,99673.38
2022-12-28T21:51:32.222Z,99668.34
2022-12-28T21:54:00.845Z,99662.22
2022-12-28T21:56:28.456Z,99665.44
2022-12-28T21:58:55.493Z,99653.69
2022-12-28T22:01:41.068Z,99650.00
2022-12-28T22:04:27.508Z,99640.53
2022-12-28T22:06:53.914Z,99638.25
2022-12-28T22:09:38.807Z,99633.25
2022-12-28T22:12:24.238Z,99630.50
2022-12-28T22:15:11.717Z,99623.56
2022-12-28T22:17:38.110Z,99619.06
2022-12-28T22:20:04.913Z,99621.34
2022-12-28T22:22:31.344Z,99605.44
2022-12-28T22:24:57.750Z,99613.97
2022-12-28T22:27:24.201Z,99612.53
2022-12-28T22:29:50.665Z,99610.75
2022-12-28T22:32:17.148Z,99598.19
2022-12-28T22:34:43.600Z,99608.75
2022-12-28T22:37:10.047Z,99613.16
2022-12-28T22:39:36.488Z,99607.97
2022-12-28T22:42:02.974Z,99610.50
2022-12-28T22:44:29.406Z,99623.13
2022-12-28T22:46:55.850Z,99603.09
2022-12-28T22:49:22.275Z,99608.56
2022-12-28T22:51:48.804Z,99593.72
2022-12-28T22:54:15.288Z,99601.28
2022-12-28T22:56:41.686Z,99581.81
2022-12-28T22:59:13.661Z,99580.31
2022-12-28T23:01:42.290Z,99576.63
2022-12-28T23:04:09.011Z,99580.59
2022-12-28T23:06:35.559Z,99578.72
2022-12-28T23:09:02.029Z,99580.91
2022-12-28T23:11:37.451Z,99585.41
2022-12-28T23:14:25.571Z,99569.81
2022-12-28T23:16:52.327Z,99565.03
2022-12-28T23:19:37.635Z,99561.53
2022-12-28T23:22:24.620Z,99564.41
2022-12-28T23:25:09.814Z,99561.53
2022-12-28T23:27:39.423Z,99561.50
2022-12-28T23:30:08.860Z,99564.78
2022-12-28T23:32:35.304Z,99551.75
2022-12-28T23:35:02.321Z,99544.84
2022-12-28T23:37:28.731Z,99556.22
2022-12-28T23:39:55.169Z,99561.66
2022-12-28T23:42:21.821Z,99548.34
2022-12-28T23:44:49.592Z,99554.66
2022-12-28T23:47:17.396Z,99548.13
2022-12-28T23:49:43.920Z,99547.41
2022-12-28T23:52:10.708Z,99545.41
2022-12-28T23:54:37.133Z,99544.88
2022-12-28T23:57:03.698Z,99542.22
2022-12-28T23:59:30.104Z,99547.47
